sensor_id;sensor_type;location;lat;lon;timestamp;pressure;altitude;pressure_sealevel;temperature;humidity
22605;BME280;11469;49.024;8.246;2023-07-29T00:00:19;99868.09;;;17.51;100.00
22605;BME280;11469;49.024;8.246;2023-07-29T00:02:45;99858.81;;;17.51;100.00
22605;BME280;11469;49.024;8.246;2023-07-29T00:05:11;99862.88;;;17.50;100.00
22605;BME280;11469;49.024;8.246;2023-07-29T00:07:36;99862.44;;;17.51;100.00
22605;BME280;11469;49.024;8.246;2023-07-29T00:10:02;99850.72;;;17.49;100.00
22605;BME280;11469;49.024;8.246;2023-07-29T00:12:30;99849.28;;;17.72;100.00
22605;BME280;11469;49.024;8.246;2023-07-29T00:14:55;99855.09;;;17.57;100.00
22605;BME280;11469;49.024;8.246;2023-07-29T00:17:21;99853.13;;;17.51;100.00
22605;BME280;11469;49.024;8.246;2023-07-29T00:19:46;99848.28;;;17.51;100.00
22605;BME280;11469;49.024;8.246;2023-07-29T00:22:12;99851.91;;;17.52;100.00
22605;BME280;11469;49.024;8.246;2023-07-29T00:24:39;99851.50;;;17.53;100.00
22605;BME280;11469;49.024;8.246;2023-07-29T00:27:04;99857.97;;;17.54;100.00
22605;BME280;11469;49.024;8.246;2023-07-29T00:29:30;99857.16;;;17.53;100.00
22605;BME280;11469;49.024;8.246;2023-07-29T00:31:55;99845.88;;;17.50;100.00
22605;BME280;11469;49.024;8.246;2023-07-29T00:34:21;99842.22;;;17.49;100.00
22605;BME280;11469;49.024;8.246;2023-07-29T00:36:46;99847.09;;;17.49;100.00
22605;BME280;11469;49.024;8.246;2023-07-29T00:39:11;99851.19;;;17.48;100.00
22605;BME280;11469;49.024;8.246;2023-07-29T00:41:37;99845.56;;;17.44;100.00
22605;BME280;11469;49.024;8.246;2023-07-29T00:44:02;99841.13;;;17.43;100.00
22605;BME280;11469;49.024;8.246;2023-07-29T00:46:28;99842.75;;;17.41;100.00
22605;BME280;11469;49.024;8.246;2023-07-29T00:48:55;99835.88;;;17.42;100.00
22605;BME280;11469;49.024;8.246;2023-07-29T00:51:21;99831.44;;;17.41;100.00
22605;BME280;11469;49.024;8.246;2023-07-29T00:53:46;99830.59;;;17.44;100.00
22605;BME280;11469;49.024;8.246;2023-07-29T00:56:12;99826.16;;;17.43;100.00
22605;BME280;11469;49.024;8.246;2023-07-29T00:58:38;99818.06;;;17.41;100.00
22605;BME280;11469;49.024;8.246;2023-07-29T01:01:03;99829.41;;;17.41;100.00
22605;BME280;11469;49.024;8.246;2023-07-29T01:03:29;99819.69;;;17.42;100.00
22605;BME280;11469;49.024;8.246;2023-07-29T01:14:23;99808.94;;;17.27;100.00
22605;BME280;11469;49.024;8.246;2023-07-29T01:17:02;99803.25;;;17.27;100.00
22605;BME280;11469;49.024;8.246;2023-07-29T01:19:59;99802.88;;;17.24;100.00
22605;BME280;11469;49.024;8.246;2023-07-29T01:22:26;99799.50;;;17.37;100.00
22605;BME280;11469;49.024;8.246;2023-07-29T01:24:52;99782.00;;;17.45;100.00
22605;BME280;11469;49.024;8.246;2023-07-29T01:27:18;99796.78;;;17.26;100.00
22605;BME280;11469;49.024;8.246;2023-07-29T01:29:43;99796.06;;;17.18;100.00
22605;BME280;11469;49.024;8.246;2023-07-29T01:32:22;99799.78;;;17.12;100.00
22605;BME280;11469;49.024;8.246;2023-07-29T01:35:21;99802.25;;;17.06;100.00
22605;BME280;11469;49.024;8.246;2023-07-29T01:37:52;99784.88;;;17.04;100.00
22605;BME280;11469;49.024;8.246;2023-07-29T01:40:18;99790.13;;;17.06;100.00
22605;BME280;11469;49.024;8.246;2023-07-29T01:42:46;99794.56;;;17.07;100.00
22605;BME280;11469;49.024;8.246;2023-07-29T01:45:11;99790.47;;;17.11;100.00
22605;BME280;11469;49.024;8.246;2023-07-29T01:47:37;99797.44;;;17.03;100.00
22605;BME280;11469;49.024;8.246;2023-07-29T01:50:06;99792.19;;;17.02;100.00
22605;BME280;11469;49.024;8.246;2023-07-29T01:52:32;99797.06;;;17.01;100.00
22605;BME280;11469;49.024;8.246;2023-07-29T01:54:57;99797.84;;;17.02;100.00
22605;BME280;11469;49.024;8.246;2023-07-29T01:57:22;99802.28;;;17.03;100.00
22605;BME280;11469;49.024;8.246;2023-07-29T01:59:48;99805.19;;;16.99;100.00
22605;BME280;11469;49.024;8.246;2023-07-29T02:02:13;99803.91;;;17.04;100.00
22605;BME280;11469;49.024;8.246;2023-07-29T02:04:38;99808.81;;;17.00;100.00
22605;BME280;11469;49.024;8.246;2023-07-29T02:07:04;99814.91;;;16.98;100.00
22605;BME280;11469;49.024;8.246;2023-07-29T02:09:29;99809.19;;;17.02;100.00
22605;BME280;11469;49.024;8.246;2023-07-29T02:11:56;99801.50;;;17.02;100.00
22605;BME280;11469;49.024;8.246;2023-07-29T02:14:22;99799.44;;;17.06;100.00
22605;BME280;11469;49.024;8.246;2023-07-29T02:16:47;99806.66;;;17.11;100.00
22605;BME280;11469;49.024;8.246;2023-07-29T02:19:13;99814.38;;;17.07;100.00
22605;BME280;11469;49.024;8.246;2023-07-29T02:21:38;99805.88;;;17.07;100.00
22605;BME280;11469;49.024;8.246;2023-07-29T02:24:04;99805.09;;;17.06;100.00
22605;BME280;11469;49.024;8.246;2023-07-29T02:26:29;99803.88;;;17.07;100.00
22605;BME280;11469;49.024;8.246;2023-07-29T02:28:54;99809.94;;;17.06;100.00
22605;BME280;11469;49.024;8.246;2023-07-29T02:31:24;99794.59;;;17.03;100.00
22605;BME280;11469;49.024;8.246;2023-07-29T02:33:50;99787.28;;;17.06;100.00
22605;BME280;11469;49.024;8.246;2023-07-29T02:36:16;99785.22;;;17.10;100.00
22605;BME280;11469;49.024;8.246;2023-07-29T02:38:42;99789.25;;;17.12;100.00
22605;BME280;11469;49.024;8.246;2023-07-29T02:41:08;99795.25;;;17.18;100.00
22605;BME280;11469;49.024;8.246;2023-07-29T02:43:35;99794.06;;;17.15;100.00
22605;BME280;11469;49.024;8.246;2023-07-29T02:46:01;99800.97;;;17.14;100.00
22605;BME280;11469;49.024;8.246;2023-07-29T02:48:27;99779.88;;;17.19;100.00
22605;BME280;11469;49.024;8.246;2023-07-29T02:50:53;99780.25;;;17.21;100.00
22605;BME280;11469;49.024;8.246;2023-07-29T02:53:21;99782.25;;;17.24;100.00
22605;BME280;11469;49.024;8.246;2023-07-29T02:55:47;99782.25;;;17.24;100.00
22605;BME280;11469;49.024;8.246;2023-07-29T02:58:12;99776.97;;;17.26;100.00
22605;BME280;11469;49.024;8.246;2023-07-29T03:00:38;99767.63;;;17.29;100.00
22605;BME280;11469;49.024;8.246;2023-07-29T03:03:07;99763.16;;;17.32;100.00
22605;BME280;11469;49.024;8.246;2023-07-29T03:05:32;99755.47;;;17.32;100.00
22605;BME280;11469;49.024;8.246;2023-07-29T03:07:57;99761.13;;;17.32;100.00
22605;BME280;11469;49.024;8.246;2023-07-29T03:10:23;99748.63;;;17.30;100.00
22605;BME280;11469;49.024;8.246;2023-07-29T03:12:48;99728.78;;;17.30;100.00
22605;BME280;11469;49.024;8.246;2023-07-29T03:15:14;99718.34;;;17.23;100.00
22605;BME280;11469;49.024;8.246;2023-07-29T03:17:39;99713.53;;;17.20;100.00
22605;BME280;11469;49.024;8.246;2023-07-29T03:20:08;99722.06;;;17.16;100.00
22605;BME280;11469;49.024;8.246;2023-07-29T03:22:33;99724.56;;;17.11;100.00
22605;BME280;11469;49.024;8.246;2023-07-29T03:24:59;99726.59;;;17.10;100.00
22605;BME280;11469;49.024;8.246;2023-07-29T03:27:24;99729.41;;;17.10;100.00
22605;BME280;11469;49.024;8.246;2023-07-29T03:29:49;99729.00;;;17.12;100.00
22605;BME280;11469;49.024;8.246;2023-07-29T03:32:15;99727.34;;;17.14;100.00
22605;BME280;11469;49.024;8.246;2023-07-29T03:34:40;99733.41;;;17.16;100.00
22605;BME280;11469;49.024;8.246;2023-07-29T03:37:05;99727.28;;;17.21;100.00
22605;BME280;11469;49.024;8.246;2023-07-29T03:39:31;99735.31;;;17.27;100.00
22605;BME280;11469;49.024;8.246;2023-07-29T03:41:57;99746.16;;;17.32;100.00
22605;BME280;11469;49.024;8.246;2023-07-29T03:44:22;99750.56;;;17.36;100.00
22605;BME280;11469;49.024;8.246;2023-07-29T03:46:48;99737.59;;;17.39;100.00
22605;BME280;11469;49.024;8.246;2023-07-29T03:49:13;99758.16;;;17.43;100.00
22605;BME280;11469;49.024;8.246;2023-07-29T03:51:39;99764.94;;;17.49;100.00
22605;BME280;11469;49.024;8.246;2023-07-29T03:54:04;99762.06;;;17.52;100.00
22605;BME280;11469;49.024;8.246;2023-07-29T03:56:29;99766.94;;;17.52;100.00
22605;BME280;11469;49.024;8.246;2023-07-29T03:59:02;99774.53;;;17.58;100.00
22605;BME280;11469;49.024;8.246;2023-07-29T04:01:28;99776.91;;;17.64;100.00
22605;BME280;11469;49.024;8.246;2023-07-29T04:03:54;99771.66;;;17.62;100.00
22605;BME280;11469;49.024;8.246;2023-07-29T04:06:20;99757.38;;;17.73;100.00
22605;BME280;11469;49.024;8.246;2023-07-29T04:08:45;99760.56;;;17.78;100.00
22605;BME280;11469;49.024;8.246;2023-07-29T04:11:11;99765.75;;;17.83;100.00
22605;BME280;11469;49.024;8.246;2023-07-29T04:13:36;99765.22;;;17.92;100.00
22605;BME280;11469;49.024;8.246;2023-07-29T04:16:04;99760.22;;;18.00;100.00
22605;BME280;11469;49.024;8.246;2023-07-29T04:18:29;99767.50;;;18.01;100.00
22605;BME280;11469;49.024;8.246;2023-07-29T04:20:54;99762.53;;;18.08;100.00
22605;BME280;11469;49.024;8.246;2023-07-29T04:23:20;99756.81;;;18.12;100.00
22605;BME280;11469;49.024;8.246;2023-07-29T04:25:45;99740.66;;;18.09;100.00
22605;BME280;11469;49.024;8.246;2023-07-29T04:28:10;99729.25;;;18.12;100.00
22605;BME280;11469;49.024;8.246;2023-07-29T04:30:36;99742.19;;;18.13;100.00
22605;BME280;11469;49.024;8.246;2023-07-29T04:33:01;99739.75;;;18.15;100.00
22605;BME280;11469;49.024;8.246;2023-07-29T04:35:27;99741.34;;;18.16;100.00
22605;BME280;11469;49.024;8.246;2023-07-29T04:37:52;99741.28;;;18.20;100.00
22605;BME280;11469;49.024;8.246;2023-07-29T04:40:17;99748.19;;;18.19;100.00
22605;BME280;11469;49.024;8.246;2023-07-29T04:42:43;99748.19;;;18.19;100.00
22605;BME280;11469;49.024;8.246;2023-07-29T04:45:08;99750.97;;;18.22;100.00
22605;BME280;11469;49.024;8.246;2023-07-29T04:47:34;99757.88;;;18.21;100.00
22605;BME280;11469;49.024;8.246;2023-07-29T04:49:59;99744.50;;;18.22;100.00
22605;BME280;11469;49.024;8.246;2023-07-29T04:52:25;99752.19;;;18.21;100.00
22605;BME280;11469;49.024;8.246;2023-07-29T04:54:50;99738.41;;;18.23;100.00
22605;BME280;11469;49.024;8.246;2023-07-29T04:57:16;99750.91;;;18.26;100.00
22605;BME280;11469;49.024;8.246;2023-07-29T04:59:41;99751.72;;;18.27;100.00
22605;BME280;11469;49.024;8.246;2023-07-29T05:02:06;99756.53;;;18.30;100.00
22605;BME280;11469;49.024;8.246;2023-07-29T05:04:32;99755.31;;;18.31;100.00
22605;BME280;11469;49.024;8.246;2023-07-29T05:06:57;99762.97;;;18.34;100.00
22605;BME280;11469;49.024;8.246;2023-07-29T05:09:23;99754.44;;;18.34;100.00
22605;BME280;11469;49.024;8.246;2023-07-29T05:11:49;99759.69;;;18.35;100.00
22605;BME280;11469;49.024;8.246;2023-07-29T05:14:16;99766.13;;;18.39;100.00
22605;BME280;11469;49.024;8.246;2023-07-29T05:16:42;99769.66;;;18.43;100.00
22605;BME280;11469;49.024;8.246;2023-07-29T05:19:08;99765.09;;;18.49;100.00
22605;BME280;11469;49.024;8.246;2023-07-29T05:21:33;99765.91;;;18.50;100.00
22605;BME280;11469;49.024;8.246;2023-07-29T05:23:58;99773.06;;;18.58;100.00
22605;BME280;11469;49.024;8.246;2023-07-29T05:26:24;99762.97;;;18.57;100.00
22605;BME280;11469;49.024;8.246;2023-07-29T05:28:49;99764.13;;;18.60;100.00
22605;BME280;11469;49.024;8.246;2023-07-29T05:31:15;99755.53;;;18.67;100.00
22605;BME280;11469;49.024;8.246;2023-07-29T05:33:40;99765.97;;;18.73;100.00
22605;BME280;11469;49.024;8.246;2023-07-29T05:36:06;99756.56;;;18.76;100.00
22605;BME280;11469;49.024;8.246;2023-07-29T05:38:31;99765.09;;;18.76;100.00
22605;BME280;11469;49.024;8.246;2023-07-29T05:40:57;99765.41;;;18.82;100.00
22605;BME280;11469;49.024;8.246;2023-07-29T05:43:24;99771.00;;;18.85;100.00
22605;BME280;11469;49.024;8.246;2023-07-29T05:45:49;99781.50;;;18.88;100.00
22605;BME280;11469;49.024;8.246;2023-07-29T05:48:15;99784.69;;;18.90;100.00
22605;BME280;11469;49.024;8.246;2023-07-29T05:50:41;99785.84;;;18.93;100.00
22605;BME280;11469;49.024;8.246;2023-07-29T05:53:06;99794.75;;;18.95;100.00
22605;BME280;11469;49.024;8.246;2023-07-29T05:55:32;99786.53;;;19.01;100.00
22605;BME280;11469;49.024;8.246;2023-07-29T05:57:57;99777.94;;;19.04;100.00
22605;BME280;11469;49.024;8.246;2023-07-29T06:00:23;99794.97;;;19.04;100.00
22605;BME280;11469;49.024;8.246;2023-07-29T06:02:48;99798.63;;;19.05;100.00
22605;BME280;11469;49.024;8.246;2023-07-29T06:05:13;99792.50;;;19.06;100.00
22605;BME280;11469;49.024;8.246;2023-07-29T06:07:39;99796.16;;;19.07;100.00
22605;BME280;11469;49.024;8.246;2023-07-29T06:10:09;99795.34;;;19.06;100.00
22605;BME280;11469;49.024;8.246;2023-07-29T06:12:37;99803.00;;;19.09;100.00
22605;BME280;11469;49.024;8.246;2023-07-29T06:15:03;99811.53;;;19.09;100.00
22605;BME280;11469;49.024;8.246;2023-07-29T06:17:28;99810.22;;;19.14;100.00
22605;BME280;11469;49.024;8.246;2023-07-29T06:19:54;99805.78;;;19.13;100.00
22605;BME280;11469;49.024;8.246;2023-07-29T06:22:19;99806.50;;;19.17;100.00
22605;BME280;11469;49.024;8.246;2023-07-29T06:24:45;99814.53;;;19.22;100.00
22605;BME280;11469;49.024;8.246;2023-07-29T06:27:10;99822.19;;;19.25;100.00
22605;BME280;11469;49.024;8.246;2023-07-29T06:29:35;99824.91;;;19.32;100.00
22605;BME280;11469;49.024;8.246;2023-07-29T06:32:01;99817.25;;;19.29;100.00
22605;BME280;11469;49.024;8.246;2023-07-29T06:34:26;99822.88;;;19.33;100.00
22605;BME280;11469;49.024;8.246;2023-07-29T06:36:51;99811.94;;;19.31;100.00
22605;BME280;11469;49.024;8.246;2023-07-29T06:39:17;99811.56;;;19.29;100.00
22605;BME280;11469;49.024;8.246;2023-07-29T06:41:42;99819.66;;;19.31;100.00
22605;BME280;11469;49.024;8.246;2023-07-29T06:44:08;99821.19;;;19.35;100.00
22605;BME280;11469;49.024;8.246;2023-07-29T06:46:33;99825.97;;;19.38;100.00
22605;BME280;11469;49.024;8.246;2023-07-29T06:48:58;99815.78;;;19.41;100.00
22605;BME280;11469;49.024;8.246;2023-07-29T06:51:24;99822.56;;;19.47;100.00
22605;BME280;11469;49.024;8.246;2023-07-29T06:53:49;99818.38;;;19.55;100.00
22605;BME280;11469;49.024;8.246;2023-07-29T06:56:15;99819.09;;;19.59;100.00
22605;BME280;11469;49.024;8.246;2023-07-29T06:58:40;99823.13;;;19.62;100.00
22605;BME280;11469;49.024;8.246;2023-07-29T07:01:05;99816.13;;;19.66;100.00
22605;BME280;11469;49.024;8.246;2023-07-29T07:03:31;99815.75;;;19.64;100.00
22605;BME280;11469;49.024;8.246;2023-07-29T07:05:56;99827.94;;;19.65;100.00
22605;BME280;11469;49.024;8.246;2023-07-29T07:08:22;99803.06;;;19.69;100.00
22605;BME280;11469;49.024;8.246;2023-07-29T07:10:48;99813.94;;;19.74;100.00
22605;BME280;11469;49.024;8.246;2023-07-29T07:13:13;99824.28;;;19.84;100.00
22605;BME280;11469;49.024;8.246;2023-07-29T07:15:38;99824.31;;;20.00;100.00
22605;BME280;11469;49.024;8.246;2023-07-29T07:18:04;99819.19;;;20.11;100.00
22605;BME280;11469;49.024;8.246;2023-07-29T07:20:29;99822.75;;;20.15;100.00
22605;BME280;11469;49.024;8.246;2023-07-29T07:22:55;99820.34;;;20.14;100.00
22605;BME280;11469;49.024;8.246;2023-07-29T07:25:20;99815.03;;;20.16;100.00
22605;BME280;11469;49.024;8.246;2023-07-29T07:27:46;99814.50;;;20.21;100.00
22605;BME280;11469;49.024;8.246;2023-07-29T07:30:11;99817.56;;;20.30;100.00
22605;BME280;11469;49.024;8.246;2023-07-29T07:32:37;99824.03;;;20.31;100.00
22605;BME280;11469;49.024;8.246;2023-07-29T07:35:03;99823.81;;;20.41;100.00
22605;BME280;11469;49.024;8.246;2023-07-29T07:37:29;99817.94;;;20.48;100.00
22605;BME280;11469;49.024;8.246;2023-07-29T07:39:54;99818.94;;;20.58;100.00
22605;BME280;11469;49.024;8.246;2023-07-29T07:42:20;99815.81;;;20.69;100.00
22605;BME280;11469;49.024;8.246;2023-07-29T07:44:45;99814.66;;;20.82;100.00
22605;BME280;11469;49.024;8.246;2023-07-29T07:47:11;99827.63;;;21.00;100.00
22605;BME280;11469;49.024;8.246;2023-07-29T07:49:36;99826.56;;;21.10;100.00
22605;BME280;11469;49.024;8.246;2023-07-29T07:52:01;99831.00;;;21.11;100.00
22605;BME280;11469;49.024;8.246;2023-07-29T07:54:27;99834.41;;;21.06;100.00
22605;BME280;11469;49.024;8.246;2023-07-29T07:56:52;99832.63;;;20.96;100.00
22605;BME280;11469;49.024;8.246;2023-07-29T07:59:17;99837.59;;;21.08;100.00
22605;BME280;11469;49.024;8.246;2023-07-29T08:01:43;99843.91;;;21.15;100.00
22605;BME280;11469;49.024;8.246;2023-07-29T08:04:08;99851.56;;;21.18;100.00
22605;BME280;11469;49.024;8.246;2023-07-29T08:06:33;99847.47;;;21.19;100.00
22605;BME280;11469;49.024;8.246;2023-07-29T08:09:00;99846.06;;;21.11;100.00
22605;BME280;11469;49.024;8.246;2023-07-29T08:11:26;99845.97;;;21.15;100.00
22605;BME280;11469;49.024;8.246;2023-07-29T08:13:51;99846.31;;;21.17;100.00
22605;BME280;11469;49.024;8.246;2023-07-29T08:16:17;99845.00;;;21.22;100.00
22605;BME280;11469;49.024;8.246;2023-07-29T08:18:42;99846.38;;;21.30;100.00
22605;BME280;11469;49.024;8.246;2023-07-29T08:21:07;99850.19;;;21.39;100.00
22605;BME280;11469;49.024;8.246;2023-07-29T08:23:34;99841.34;;;21.50;100.00
22605;BME280;11469;49.024;8.246;2023-07-29T08:26:01;99842.50;;;21.52;100.00
22605;BME280;11469;49.024;8.246;2023-07-29T08:28:28;99852.13;;;21.59;100.00
22605;BME280;11469;49.024;8.246;2023-07-29T08:30:54;99851.13;;;21.65;100.00
22605;BME280;11469;49.024;8.246;2023-07-29T08:33:19;99849.66;;;21.73;100.00
22605;BME280;11469;49.024;8.246;2023-07-29T08:35:45;99850.25;;;21.81;100.00
22605;BME280;11469;49.024;8.246;2023-07-29T08:38:10;99851.78;;;21.98;100.00
22605;BME280;11469;49.024;8.246;2023-07-29T08:40:37;99857.91;;;22.13;100.00
22605;BME280;11469;49.024;8.246;2023-07-29T08:43:05;99871.00;;;22.23;100.00
22605;BME280;11469;49.024;8.246;2023-07-29T08:45:34;99863.84;;;22.18;100.00
22605;BME280;11469;49.024;8.246;2023-07-29T08:48:02;99862.44;;;22.10;100.00
22605;BME280;11469;49.024;8.246;2023-07-29T08:50:32;99866.25;;;22.20;100.00
22605;BME280;11469;49.024;8.246;2023-07-29T08:52:59;99872.63;;;22.37;100.00
22605;BME280;11469;49.024;8.246;2023-07-29T08:55:26;99864.88;;;22.50;100.00
22605;BME280;11469;49.024;8.246;2023-07-29T08:57:51;99866.81;;;22.40;100.00
22605;BME280;11469;49.024;8.246;2023-07-29T09:00:17;99846.47;;;22.26;100.00
22605;BME280;11469;49.024;8.246;2023-07-29T09:02:42;99854.69;;;22.24;100.00
22605;BME280;11469;49.024;8.246;2023-07-29T09:05:08;99852.44;;;22.44;100.00
22605;BME280;11469;49.024;8.246;2023-07-29T09:07:34;99860.44;;;22.62;100.00
22605;BME280;11469;49.024;8.246;2023-07-29T09:10:01;99853.59;;;22.59;100.00
22605;BME280;11469;49.024;8.246;2023-07-29T09:12:27;99859.97;;;22.63;100.00
22605;BME280;11469;49.024;8.246;2023-07-29T09:14:52;99855.28;;;22.82;100.00
22605;BME280;11469;49.024;8.246;2023-07-29T09:17:19;99859.06;;;22.92;100.00
22605;BME280;11469;49.024;8.246;2023-07-29T09:19:50;99845.78;;;22.98;100.00
22605;BME280;11469;49.024;8.246;2023-07-29T09:22:22;99839.50;;;23.03;100.00
22605;BME280;11469;49.024;8.246;2023-07-29T09:24:47;99844.84;;;23.13;100.00
22605;BME280;11469;49.024;8.246;2023-07-29T09:27:26;99844.91;;;23.23;100.00
22605;BME280;11469;49.024;8.246;2023-07-29T09:29:53;99855.41;;;23.38;100.00
22605;BME280;11469;49.024;8.246;2023-07-29T09:32:20;99854.81;;;23.56;100.00
22605;BME280;11469;49.024;8.246;2023-07-29T09:34:46;99843.03;;;23.76;100.00
22605;BME280;11469;49.024;8.246;2023-07-29T09:37:20;99841.56;;;23.93;100.00
22605;BME280;11469;49.024;8.246;2023-07-29T09:39:49;99840.34;;;24.03;97.81
22605;BME280;11469;49.024;8.246;2023-07-29T09:42:19;99835.94;;;24.11;97.15
22605;BME280;11469;49.024;8.246;2023-07-29T09:44:45;99836.44;;;24.10;94.58
22605;BME280;11469;49.024;8.246;2023-07-29T09:47:19;99837.53;;;24.34;96.89
22605;BME280;11469;49.024;8.246;2023-07-29T09:49:45;99833.59;;;24.41;91.49
22605;BME280;11469;49.024;8.246;2023-07-29T09:52:10;99844.63;;;24.61;90.48
22605;BME280;11469;49.024;8.246;2023-07-29T09:54:36;99840.50;;;24.62;89.83
22605;BME280;11469;49.024;8.246;2023-07-29T09:57:02;99847.25;;;24.77;89.57
22605;BME280;11469;49.024;8.246;2023-07-29T09:59:28;99858.63;;;24.59;89.36
22605;BME280;11469;49.024;8.246;2023-07-29T10:01:54;99856.31;;;24.35;89.53
22605;BME280;11469;49.024;8.246;2023-07-29T10:04:20;99855.69;;;24.19;88.65
22605;BME280;11469;49.024;8.246;2023-07-29T10:06:46;99865.03;;;24.10;89.89
22605;BME280;11469;49.024;8.246;2023-07-29T10:09:12;99861.31;;;24.00;92.07
22605;BME280;11469;49.024;8.246;2023-07-29T10:11:39;99866.81;;;24.16;90.98
22605;BME280;11469;49.024;8.246;2023-07-29T10:14:06;99865.69;;;24.36;89.78
22605;BME280;11469;49.024;8.246;2023-07-29T10:16:32;99855.94;;;24.55;89.51
22605;BME280;11469;49.024;8.246;2023-07-29T10:18:58;99865.47;;;24.52;88.50
22605;BME280;11469;49.024;8.246;2023-07-29T10:21:24;99861.47;;;24.59;89.25
22605;BME280;11469;49.024;8.246;2023-07-29T10:23:53;99852.31;;;24.73;88.02
22605;BME280;11469;49.024;8.246;2023-07-29T10:26:22;99854.44;;;24.91;85.98
22605;BME280;11469;49.024;8.246;2023-07-29T10:28:52;99850.06;;;24.99;83.92
22605;BME280;11469;49.024;8.246;2023-07-29T10:31:18;99848.66;;;25.31;83.37
22605;BME280;11469;49.024;8.246;2023-07-29T10:33:44;99856.97;;;25.47;83.58
22605;BME280;11469;49.024;8.246;2023-07-29T10:36:10;99849.78;;;25.42;80.80
22605;BME280;11469;49.024;8.246;2023-07-29T10:38:36;99851.53;;;25.40;77.94
22605;BME280;11469;49.024;8.246;2023-07-29T10:41:02;99852.97;;;25.35;75.58
22605;BME280;11469;49.024;8.246;2023-07-29T10:43:33;99851.69;;;25.27;74.17
22605;BME280;11469;49.024;8.246;2023-07-29T10:46:17;99858.50;;;25.11;73.82
22605;BME280;11469;49.024;8.246;2023-07-29T10:48:43;99853.56;;;25.03;75.50
22605;BME280;11469;49.024;8.246;2023-07-29T10:51:35;99862.00;;;24.97;75.08
22605;BME280;11469;49.024;8.246;2023-07-29T10:54:10;99860.94;;;24.82;75.59
22605;BME280;11469;49.024;8.246;2023-07-29T10:56:41;99855.41;;;24.88;74.55
22605;BME280;11469;49.024;8.246;2023-07-29T11:01:53;99852.16;;;24.76;75.33
22605;BME280;11469;49.024;8.246;2023-07-29T11:12:45;99855.38;;;25.64;72.13
22605;BME280;11469;49.024;8.246;2023-07-29T11:15:17;99863.66;;;25.62;70.18
22605;BME280;11469;49.024;8.246;2023-07-29T11:20:16;99850.44;;;25.65;70.34
22605;BME280;11469;49.024;8.246;2023-07-29T11:22:41;99845.19;;;25.82;66.77
22605;BME280;11469;49.024;8.246;2023-07-29T11:25:09;99845.59;;;26.07;68.44
22605;BME280;11469;49.024;8.246;2023-07-29T11:27:35;99848.00;;;26.09;66.93
22605;BME280;11469;49.024;8.246;2023-07-29T11:30:09;99849.13;;;26.02;68.44
22605;BME280;11469;49.024;8.246;2023-07-29T11:32:35;99829.22;;;25.99;66.53
22605;BME280;11469;49.024;8.246;2023-07-29T11:35:03;99832.91;;;25.72;67.60
22605;BME280;11469;49.024;8.246;2023-07-29T11:37:28;99837.53;;;25.78;69.08
22605;BME280;11469;49.024;8.246;2023-07-29T11:39:54;99835.78;;;25.81;68.88
22605;BME280;11469;49.024;8.246;2023-07-29T11:42:19;99831.63;;;25.73;68.18
22605;BME280;11469;49.024;8.246;2023-07-29T11:44:45;99828.75;;;25.82;69.21
22605;BME280;11469;49.024;8.246;2023-07-29T11:47:12;99822.84;;;25.86;68.97
22605;BME280;11469;49.024;8.246;2023-07-29T11:49:41;99820.28;;;25.97;68.61
22605;BME280;11469;49.024;8.246;2023-07-29T11:52:08;99821.66;;;26.20;68.53
22605;BME280;11469;49.024;8.246;2023-07-29T11:54:37;99798.84;;;26.16;65.55
22605;BME280;11469;49.024;8.246;2023-07-29T11:57:07;99799.00;;;26.22;65.62
22605;BME280;11469;49.024;8.246;2023-07-29T11:59:34;99805.38;;;26.35;64.92
22605;BME280;11469;49.024;8.246;2023-07-29T12:02:11;99794.34;;;26.33;64.92
22605;BME280;11469;49.024;8.246;2023-07-29T12:04:38;99795.47;;;26.36;65.12
22605;BME280;11469;49.024;8.246;2023-07-29T12:07:04;99803.59;;;26.28;65.94
22605;BME280;11469;49.024;8.246;2023-07-29T12:09:30;99781.97;;;26.09;64.39
22605;BME280;11469;49.024;8.246;2023-07-29T12:11:56;99797.03;;;26.46;64.33
22605;BME280;11469;49.024;8.246;2023-07-29T12:14:21;99785.06;;;26.71;61.26
22605;BME280;11469;49.024;8.246;2023-07-29T12:16:50;99791.31;;;26.70;59.21
22605;BME280;11469;49.024;8.246;2023-07-29T12:19:17;99797.72;;;26.65;58.19
22605;BME280;11469;49.024;8.246;2023-07-29T12:21:43;99798.59;;;26.80;58.40
22605;BME280;11469;49.024;8.246;2023-07-29T12:24:09;99795.19;;;26.91;57.29
22605;BME280;11469;49.024;8.246;2023-07-29T12:26:38;99795.53;;;26.84;57.98
22605;BME280;11469;49.024;8.246;2023-07-29T12:31:38;99806.75;;;27.05;57.69
22605;BME280;11469;49.024;8.246;2023-07-29T12:34:03;99805.66;;;27.03;57.35
22605;BME280;11469;49.024;8.246;2023-07-29T12:36:49;99813.63;;;27.08;57.26
22605;BME280;11469;49.024;8.246;2023-07-29T12:39:23;99806.38;;;27.13;57.84
22605;BME280;11469;49.024;8.246;2023-07-29T12:41:49;99800.69;;;27.03;56.98
22605;BME280;11469;49.024;8.246;2023-07-29T12:44:15;99806.38;;;26.89;57.68
22605;BME280;11469;49.024;8.246;2023-07-29T12:46:41;99803.31;;;26.92;57.40
22605;BME280;11469;49.024;8.246;2023-07-29T12:49:06;99802.66;;;26.97;55.94
22605;BME280;11469;49.024;8.246;2023-07-29T12:51:32;99794.88;;;26.89;56.46
22605;BME280;11469;49.024;8.246;2023-07-29T12:53:58;99794.69;;;27.16;56.24
22605;BME280;11469;49.024;8.246;2023-07-29T12:56:23;99784.13;;;27.22;55.96
22605;BME280;11469;49.024;8.246;2023-07-29T12:58:48;99791.41;;;27.32;55.42
22605;BME280;11469;49.024;8.246;2023-07-29T13:01:14;99781.59;;;27.54;55.67
22605;BME280;11469;49.024;8.246;2023-07-29T13:03:47;99794.97;;;27.81;56.90
22605;BME280;11469;49.024;8.246;2023-07-29T13:06:12;99799.63;;;27.78;55.01
22605;BME280;11469;49.024;8.246;2023-07-29T13:08:38;99787.81;;;27.76;55.54
22605;BME280;11469;49.024;8.246;2023-07-29T13:11:04;99781.47;;;27.87;54.82
22605;BME280;11469;49.024;8.246;2023-07-29T13:13:30;99781.69;;;27.83;55.93